Bookmark and Share
Track history (hours):
 

City Of Cleveland

More information available from US FCC via Universal Licensing System and Coast Guard Vessel Documentation Center.

Last reported at 2014-Apr-13 20:33 UTC. Time now 2014-Apr-19 22:12 UTC.
Position N 30°01' W 090°46'.

Length 42 m; draft 12.5 m.

Type: Towing. MMSI: 366991810.

NotesDate/timePositionNaut miles runAvg speedWind from/ knotsBaromVisibWave heightAir tempDewpointWater temp
2014-Apr-13 20:33N 30°01' W 090°46'2 0.2
2014-Apr-13 11:33N 30°01' W 090°44'0 0.3
2014-Apr-13 10:30N 30°01' W 090°43'0 0.0
2014-Apr-13 09:33N 30°01' W 090°43'0 0.0
2014-Apr-13 08:33N 30°01' W 090°43'3 2.7
2014-Apr-13 07:33N 30°02' W 090°41'2 2.3
2014-Apr-13 06:33N 30°02' W 090°38'0 0.0
2014-Apr-13 05:33N 30°02' W 090°38'0 0.0
2014-Apr-13 04:33N 30°02' W 090°38'0 0.1
2014-Apr-13 03:33N 30°03' W 090°38'0 0.0
2014-Apr-13 02:33N 30°03' W 090°38'0 0.1
2014-Apr-13 01:33N 30°02' W 090°38'0 0.0
2014-Apr-13 00:33N 30°02' W 090°38'0 0.0
2014-Apr-12 23:33N 30°02' W 090°38'0 0.0
2014-Apr-12 22:33N 30°02' W 090°38'0 0.0
2014-Apr-12 21:33N 30°02' W 090°38'0 0.0
2014-Apr-12 20:33N 30°02' W 090°38'1 0.5
2014-Apr-12 19:33N 30°02' W 090°38'5 4.5
2014-Apr-12 18:33N 30°03' W 090°33'4 3.8
2014-Apr-12 17:33N 30°02' W 090°28'3 3.4
2014-Apr-12 16:33N 29°60' W 090°25'5 2.5
2014-Apr-12 14:31N 29°56' W 090°21'1 0.3
2014-Apr-12 12:20N 29°56' W 090°20'0 0.0
2014-Apr-12 11:29N 29°56' W 090°20'0 0.0
2014-Apr-12 10:33N 29°56' W 090°20'0 0.0
2014-Apr-12 09:21N 29°56' W 090°20'0 0.0
2014-Apr-12 08:32N 29°56' W 090°20'0 0.0
2014-Apr-12 07:32N 29°56' W 090°20'0 0.0
2014-Apr-12 06:33N 29°56' W 090°21'0 0.0
2014-Apr-12 05:33N 29°56' W 090°21'0 0.0
2014-Apr-12 04:33N 29°56' W 090°21'0 0.0
2014-Apr-12 03:33N 29°56' W 090°21'0 0.0
2014-Apr-12 02:33N 29°56' W 090°21'0 0.0
2014-Apr-12 01:33N 29°56' W 090°21'0 0.0
2014-Apr-12 00:33N 29°56' W 090°20'0 0.0
2014-Apr-11 23:31N 29°56' W 090°21'3 0.2
2014-Apr-11 07:13N 29°57' W 090°18'1 1.6
2014-Apr-11 06:33N 29°57' W 090°18'1 1.4
2014-Apr-11 05:32N 29°56' W 090°20'1 1.3
2014-Apr-11 04:33N 29°56' W 090°21'0 0.0
2014-Apr-11 03:33N 29°56' W 090°21'0 0.0
2014-Apr-11 02:33N 29°56' W 090°21'0 0.0
2014-Apr-11 01:33N 29°56' W 090°21'11 1.4
2014-Apr-10 17:33N 30°03' W 090°31'5 4.7
2014-Apr-10 16:32N 30°02' W 090°37'12 3.9
2014-Apr-10 13:34N 29°60' W 090°50'5 5.3
2014-Apr-10 12:33N 30°04' W 090°54'0 0.1
2014-Apr-10 11:31N 30°04' W 090°54'0 0.0
2014-Apr-10 10:11N 30°04' W 090°54'0 0.0
2014-Apr-10 06:10N 30°04' W 090°54'0 0.1
2014-Apr-10 04:31N 30°04' W 090°54'  

Dump ship's entire track history

sailing weather and tide predictions

City Of Cleveland — WDC2358 — position and weather